Portage Lakes, Ohio
Current Conditions -  °F | °C
As of 8:54 AM on Friday 28 Nov 2014 (Local Time) from KAKR Reporting Station
Overcast Overcast  
Wind Chill: 11°   Ceiling: 3600
Heat Index: 21°   Visibility: 10mi
Dew Point: 14°   Wind: 8mph
Humidity: 74%   Direction: 260°W
Pressure: 30.34"   Gusts: NA
Location:  41.01°N, 81.53°W
Report Text: KAKR 281354Z AUTO 26007KT 10SM OVC036 M06/M10 A3034 RMK AO2 SLP286 T10611100 $
Loading
Personal Weather Stations






























Interactive Weather Map New forecast layout! Learn more

10-Day Weather Forecast

Advertisements
Track Severe Weather on mobile